sensor_id;sensor_type;location;lat;lon;timestamp;pressure;altitude;pressure_sealevel;temperature;humidity
59170;BME280;52474;52.236;5.114;2023-02-23T00:00:15;101397.09;;;6.53;100.00
59170;BME280;52474;52.236;5.114;2023-02-23T00:02:52;101391.91;;;6.51;100.00
59170;BME280;52474;52.236;5.114;2023-02-23T00:05:37;101400.56;;;6.53;100.00
59170;BME280;52474;52.236;5.114;2023-02-23T00:08:07;101394.47;;;6.53;100.00
59170;BME280;52474;52.236;5.114;2023-02-23T00:10:41;101398.97;;;6.51;100.00
59170;BME280;52474;52.236;5.114;2023-02-23T00:13:12;101395.50;;;6.50;100.00
59170;BME280;52474;52.236;5.114;2023-02-23T00:15:40;101390.31;;;6.49;100.00
59170;BME280;52474;52.236;5.114;2023-02-23T00:18:24;101394.56;;;6.51;100.00
59170;BME280;52474;52.236;5.114;2023-02-23T00:20:59;101402.38;;;6.53;100.00
59170;BME280;52474;52.236;5.114;2023-02-23T00:23:29;101392.88;;;6.50;100.00
59170;BME280;52474;52.236;5.114;2023-02-23T00:26:06;101399.63;;;6.54;100.00
59170;BME280;52474;52.236;5.114;2023-02-23T00:28:42;101398.69;;;6.55;100.00
59170;BME280;52474;52.236;5.114;2023-02-23T00:31:10;101394.19;;;6.57;100.00
59170;BME280;52474;52.236;5.114;2023-02-23T00:33:44;101371.31;;;6.43;100.00
59170;BME280;52474;52.236;5.114;2023-02-23T00:36:13;101390.69;;;6.57;100.00
59170;BME280;52474;52.236;5.114;2023-02-23T00:38:42;101392.41;;;6.58;100.00
59170;BME280;52474;52.236;5.114;2023-02-23T00:41:15;101386.38;;;6.56;100.00
59170;BME280;52474;52.236;5.114;2023-02-23T00:43:44;101387.03;;;6.59;100.00
59170;BME280;52474;52.236;5.114;2023-02-23T00:46:16;101395.97;;;6.57;100.00
59170;BME280;52474;52.236;5.114;2023-02-23T00:48:47;101386.31;;;6.57;100.00
59170;BME280;52474;52.236;5.114;2023-02-23T00:51:17;101386.38;;;6.56;100.00
59170;BME280;52474;52.236;5.114;2023-02-23T00:53:44;101394.19;;;6.57;100.00
59170;BME280;52474;52.236;5.114;2023-02-23T00:56:13;101389.84;;;6.56;100.00
59170;BME280;52474;52.236;5.114;2023-02-23T00:58:43;101386.47;;;6.54;100.00
59170;BME280;52474;52.236;5.114;2023-02-23T01:01:14;101380.28;;;6.55;100.00
59170;BME280;52474;52.236;5.114;2023-02-23T01:03:42;101387.22;;;6.56;100.00
59170;BME280;52474;52.236;5.114;2023-02-23T01:06:12;101381.59;;;6.48;100.00
59170;BME280;52474;52.236;5.114;2023-02-23T01:08:42;101389.78;;;6.58;100.00
59170;BME280;52474;52.236;5.114;2023-02-23T01:11:14;101393.16;;;6.60;100.00
59170;BME280;52474;52.236;5.114;2023-02-23T01:13:43;101398.31;;;6.61;100.00
59170;BME280;52474;52.236;5.114;2023-02-23T01:16:16;101388.75;;;6.60;100.00
59170;BME280;52474;52.236;5.114;2023-02-23T01:18:45;101391.38;;;6.60;100.00
59170;BME280;52474;52.236;5.114;2023-02-23T01:21:32;101386.88;;;6.62;100.00
59170;BME280;52474;52.236;5.114;2023-02-23T01:24:14;101390.53;;;6.60;100.00
59170;BME280;52474;52.236;5.114;2023-02-23T01:26:50;101391.25;;;6.62;100.00
59170;BME280;52474;52.236;5.114;2023-02-23T01:29:23;101390.34;;;6.63;100.00
59170;BME280;52474;52.236;5.114;2023-02-23T01:31:56;101388.63;;;6.62;100.00
59170;BME280;52474;52.236;5.114;2023-02-23T01:34:28;101387.03;;;6.59;100.00
59170;BME280;52474;52.236;5.114;2023-02-23T01:36:56;101392.13;;;6.62;100.00
59170;BME280;52474;52.236;5.114;2023-02-23T01:39:33;101395.69;;;6.61;100.00
59170;BME280;52474;52.236;5.114;2023-02-23T01:42:08;101387.78;;;6.61;100.00
59170;BME280;52474;52.236;5.114;2023-02-23T01:47:09;101381.19;;;6.54;100.00
59170;BME280;52474;52.236;5.114;2023-02-23T01:49:52;101382.91;;;6.55;100.00
59170;BME280;52474;52.236;5.114;2023-02-23T01:52:25;101385.53;;;6.55;100.00
59170;BME280;52474;52.236;5.114;2023-02-23T01:55:00;101384.88;;;6.52;100.00
59170;BME280;52474;52.236;5.114;2023-02-23T01:57:42;101385.06;;;6.49;100.00
59170;BME280;52474;52.236;5.114;2023-02-23T02:00:14;101382.22;;;6.52;100.00
59170;BME280;52474;52.236;5.114;2023-02-23T02:03:05;101390.13;;;6.52;100.00
59170;BME280;52474;52.236;5.114;2023-02-23T02:05:42;101378.84;;;6.50;100.00
59170;BME280;52474;52.236;5.114;2023-02-23T02:08:14;101377.25;;;6.47;100.00
59170;BME280;52474;52.236;5.114;2023-02-23T02:10:45;101391.06;;;6.51;100.00
59170;BME280;52474;52.236;5.114;2023-02-23T02:13:17;101369.34;;;6.33;100.00
59170;BME280;52474;52.236;5.114;2023-02-23T02:16:44;101394.63;;;6.50;100.00
59170;BME280;52474;52.236;5.114;2023-02-23T02:24:38;101357.25;;;6.14;100.00
59170;BME280;52474;52.236;5.114;2023-02-23T02:30:43;101390.41;;;6.47;100.00
59170;BME280;52474;52.236;5.114;2023-02-23T02:33:42;101401.09;;;6.44;100.00
59170;BME280;52474;52.236;5.114;2023-02-23T02:36:44;101388.97;;;6.41;100.00
59170;BME280;52474;52.236;5.114;2023-02-23T02:42:14;101393.03;;;6.33;100.00
59170;BME280;52474;52.236;5.114;2023-02-23T02:45:09;101387.06;;;6.29;100.00
59170;BME280;52474;52.236;5.114;2023-02-23T02:50:40;101385.56;;;6.25;100.00
59170;BME280;52474;52.236;5.114;2023-02-23T02:53:17;101389.81;;;6.28;100.00
59170;BME280;52474;52.236;5.114;2023-02-23T02:55:50;101389.81;;;6.28;100.00
59170;BME280;52474;52.236;5.114;2023-02-23T02:58:24;101395.53;;;6.34;100.00
59170;BME280;52474;52.236;5.114;2023-02-23T03:01:06;101388.59;;;6.33;100.00
59170;BME280;52474;52.236;5.114;2023-02-23T03:03:53;101387.19;;;6.28;100.00
59170;BME280;52474;52.236;5.114;2023-02-23T03:06:51;101391.22;;;6.33;100.00
59170;BME280;52474;52.236;5.114;2023-02-23T03:09:56;101371.81;;;6.20;100.00
59170;BME280;52474;52.236;5.114;2023-02-23T03:16:09;101396.56;;;6.32;100.00
59170;BME280;52474;52.236;5.114;2023-02-23T03:22:16;101392.16;;;6.32;100.00
59170;BME280;52474;52.236;5.114;2023-02-23T03:28:48;101392.16;;;6.32;100.00
59170;BME280;52474;52.236;5.114;2023-02-23T03:31:52;101377.00;;;6.21;100.00
59170;BME280;52474;52.236;5.114;2023-02-23T03:35:08;101398.28;;;6.33;100.00
59170;BME280;52474;52.236;5.114;2023-02-23T03:38:19;101404.28;;;6.35;100.00
59170;BME280;52474;52.236;5.114;2023-02-23T03:41:10;101369.56;;;6.14;100.00
59170;BME280;52474;52.236;5.114;2023-02-23T03:44:02;101414.97;;;6.32;100.00
59170;BME280;52474;52.236;5.114;2023-02-23T03:46:50;101397.41;;;6.32;100.00
59170;BME280;52474;52.236;5.114;2023-02-23T03:49:37;101390.06;;;6.23;100.00
59170;BME280;52474;52.236;5.114;2023-02-23T03:52:28;101411.44;;;6.33;100.00
59170;BME280;52474;52.236;5.114;2023-02-23T03:55:22;101415.81;;;6.32;100.00
59170;BME280;52474;52.236;5.114;2023-02-23T03:58:11;101407.34;;;6.27;100.00
59170;BME280;52474;52.236;5.114;2023-02-23T04:00:58;101407.72;;;6.21;100.00
59170;BME280;52474;52.236;5.114;2023-02-23T04:03:46;101406.50;;;6.27;100.00
59170;BME280;52474;52.236;5.114;2023-02-23T04:06:39;101409.34;;;6.23;100.00
59170;BME280;52474;52.236;5.114;2023-02-23T04:09:26;101421.09;;;6.32;100.00
59170;BME280;52474;52.236;5.114;2023-02-23T04:15:26;101421.84;;;6.34;100.00
59170;BME280;52474;52.236;5.114;2023-02-23T04:17:53;101430.50;;;6.36;100.00
59170;BME280;52474;52.236;5.114;2023-02-23T04:20:20;101433.22;;;6.35;100.00
59170;BME280;52474;52.236;5.114;2023-02-23T04:22:46;101429.84;;;6.33;100.00
59170;BME280;52474;52.236;5.114;2023-02-23T04:25:14;101441.97;;;6.35;100.00
59170;BME280;52474;52.236;5.114;2023-02-23T04:27:40;101415.50;;;6.22;100.00
59170;BME280;52474;52.236;5.114;2023-02-23T04:30:06;101423.31;;;6.24;100.00
59170;BME280;52474;52.236;5.114;2023-02-23T04:32:36;101445.44;;;6.36;100.00
59170;BME280;52474;52.236;5.114;2023-02-23T04:35:02;101433.22;;;6.35;100.00
59170;BME280;52474;52.236;5.114;2023-02-23T04:37:28;101448.91;;;6.36;100.00
59170;BME280;52474;52.236;5.114;2023-02-23T04:39:53;101446.38;;;6.35;100.00
59170;BME280;52474;52.236;5.114;2023-02-23T04:42:19;101444.69;;;6.34;100.00
59170;BME280;52474;52.236;5.114;2023-02-23T04:44:45;101440.44;;;6.31;100.00
59170;BME280;52474;52.236;5.114;2023-02-23T04:47:12;101433.06;;;6.22;100.00
59170;BME280;52474;52.236;5.114;2023-02-23T04:49:38;101447.38;;;6.32;100.00
59170;BME280;52474;52.236;5.114;2023-02-23T04:52:04;101451.03;;;6.30;100.00
59170;BME280;52474;52.236;5.114;2023-02-23T04:54:30;101445.97;;;6.27;100.00
59170;BME280;52474;52.236;5.114;2023-02-23T04:56:56;101450.13;;;6.31;100.00
59170;BME280;52474;52.236;5.114;2023-02-23T04:59:21;101446.72;;;6.29;100.00
59170;BME280;52474;52.236;5.114;2023-02-23T05:01:47;101452.56;;;6.34;100.00
59170;BME280;52474;52.236;5.114;2023-02-23T05:04:13;101438.34;;;6.22;100.00
59170;BME280;52474;52.236;5.114;2023-02-23T05:06:38;101459.69;;;6.32;100.00
59170;BME280;52474;52.236;5.114;2023-02-23T05:09:04;101456.16;;;6.33;100.00
59170;BME280;52474;52.236;5.114;2023-02-23T05:11:31;101466.56;;;6.34;100.00
59170;BME280;52474;52.236;5.114;2023-02-23T05:13:57;101461.31;;;6.34;100.00
59170;BME280;52474;52.236;5.114;2023-02-23T05:16:23;101444.28;;;6.26;100.00
59170;BME280;52474;52.236;5.114;2023-02-23T05:18:49;101460.53;;;6.32;100.00
59170;BME280;52474;52.236;5.114;2023-02-23T05:21:15;101462.16;;;6.35;100.00
59170;BME280;52474;52.236;5.114;2023-02-23T05:23:41;101447.94;;;6.23;100.00
59170;BME280;52474;52.236;5.114;2023-02-23T05:26:09;101451.31;;;6.25;100.00
59170;BME280;52474;52.236;5.114;2023-02-23T05:28:36;101443.53;;;6.23;100.00
59170;BME280;52474;52.236;5.114;2023-02-23T05:31:02;101466.00;;;6.29;100.00
59170;BME280;52474;52.236;5.114;2023-02-23T05:33:29;101477.28;;;6.31;100.00
59170;BME280;52474;52.236;5.114;2023-02-23T05:35:56;101470.34;;;6.30;100.00
59170;BME280;52474;52.236;5.114;2023-02-23T05:38:22;101465.22;;;6.27;100.00
59170;BME280;52474;52.236;5.114;2023-02-23T05:40:48;101445.66;;;6.17;100.00
59170;BME280;52474;52.236;5.114;2023-02-23T05:43:14;101468.63;;;6.29;100.00
59170;BME280;52474;52.236;5.114;2023-02-23T05:45:41;101466.94;;;6.28;100.00
59170;BME280;52474;52.236;5.114;2023-02-23T05:48:07;101471.50;;;6.24;100.00
59170;BME280;52474;52.236;5.114;2023-02-23T05:50:33;101434.91;;;6.06;100.00
59170;BME280;52474;52.236;5.114;2023-02-23T05:52:59;101475.75;;;6.27;100.00
59170;BME280;52474;52.236;5.114;2023-02-23T05:55:25;101483.63;;;6.27;100.00
59170;BME280;52474;52.236;5.114;2023-02-23T05:57:51;101474.06;;;6.26;100.00
59170;BME280;52474;52.236;5.114;2023-02-23T06:00:18;101483.56;;;6.29;100.00
59170;BME280;52474;52.236;5.114;2023-02-23T06:02:44;101456.00;;;6.20;100.00
59170;BME280;52474;52.236;5.114;2023-02-23T06:05:10;101474.91;;;6.27;100.00
59170;BME280;52474;52.236;5.114;2023-02-23T06:07:37;101476.63;;;6.28;100.00
59170;BME280;52474;52.236;5.114;2023-02-23T06:10:03;101465.59;;;6.21;100.00
59170;BME280;52474;52.236;5.114;2023-02-23T06:12:29;101484.59;;;6.26;100.00
59170;BME280;52474;52.236;5.114;2023-02-23T06:14:55;101474.13;;;6.24;100.00
59170;BME280;52474;52.236;5.114;2023-02-23T06:17:22;101480.16;;;6.27;100.00
59170;BME280;52474;52.236;5.114;2023-02-23T06:19:47;101465.09;;;6.14;100.00
59170;BME280;52474;52.236;5.114;2023-02-23T06:22:14;101471.09;;;6.16;100.00
59170;BME280;52474;52.236;5.114;2023-02-23T06:24:42;101494.94;;;6.29;100.00
59170;BME280;52474;52.236;5.114;2023-02-23T06:27:08;101499.34;;;6.29;100.00
59170;BME280;52474;52.236;5.114;2023-02-23T06:29:33;101475.41;;;6.17;100.00
59170;BME280;52474;52.236;5.114;2023-02-23T06:31:59;101498.50;;;6.28;100.00
59170;BME280;52474;52.236;5.114;2023-02-23T06:34:25;101493.31;;;6.27;100.00
59170;BME280;52474;52.236;5.114;2023-02-23T06:36:50;101505.44;;;6.29;100.00
59170;BME280;52474;52.236;5.114;2023-02-23T06:39:16;101505.44;;;6.29;100.00
59170;BME280;52474;52.236;5.114;2023-02-23T06:41:42;101483.16;;;6.20;100.00
59170;BME280;52474;52.236;5.114;2023-02-23T06:44:07;101503.00;;;6.26;100.00
59170;BME280;52474;52.236;5.114;2023-02-23T06:46:33;101517.69;;;6.30;100.00
59170;BME280;52474;52.236;5.114;2023-02-23T06:48:59;101514.09;;;6.31;100.00
59170;BME280;52474;52.236;5.114;2023-02-23T06:51:25;101521.16;;;6.31;100.00
59170;BME280;52474;52.236;5.114;2023-02-23T06:53:51;101498.19;;;6.18;100.00
59170;BME280;52474;52.236;5.114;2023-02-23T06:56:18;101492.91;;;6.18;100.00
59170;BME280;52474;52.236;5.114;2023-02-23T06:58:44;101515.72;;;6.34;100.00
59170;BME280;52474;52.236;5.114;2023-02-23T07:01:10;101520.03;;;6.35;100.00
59170;BME280;52474;52.236;5.114;2023-02-23T07:03:37;101528.69;;;6.37;100.00
59170;BME280;52474;52.236;5.114;2023-02-23T07:06:03;101526.16;;;6.35;100.00
59170;BME280;52474;52.236;5.114;2023-02-23T07:08:34;101539.06;;;6.40;100.00
59170;BME280;52474;52.236;5.114;2023-02-23T07:11:10;101545.81;;;6.44;100.00
59170;BME280;52474;52.236;5.114;2023-02-23T07:13:38;101544.91;;;6.45;100.00
59170;BME280;52474;52.236;5.114;2023-02-23T07:16:05;101559.75;;;6.46;100.00
59170;BME280;52474;52.236;5.114;2023-02-23T07:18:31;101539.22;;;6.37;100.00
59170;BME280;52474;52.236;5.114;2023-02-23T07:20:56;101566.69;;;6.47;100.00
59170;BME280;52474;52.236;5.114;2023-02-23T07:23:22;101571.94;;;6.47;100.00
59170;BME280;52474;52.236;5.114;2023-02-23T07:25:52;101566.53;;;6.50;100.00
59170;BME280;52474;52.236;5.114;2023-02-23T07:28:18;101573.31;;;6.54;100.00
59170;BME280;52474;52.236;5.114;2023-02-23T07:30:45;101535.91;;;6.33;100.00
59170;BME280;52474;52.236;5.114;2023-02-23T07:33:11;101575.88;;;6.56;100.00
59170;BME280;52474;52.236;5.114;2023-02-23T07:35:37;101575.59;;;6.60;100.00
59170;BME280;52474;52.236;5.114;2023-02-23T07:38:02;101583.25;;;6.65;100.00
59170;BME280;52474;52.236;5.114;2023-02-23T07:40:32;101569.22;;;6.64;100.00
59170;BME280;52474;52.236;5.114;2023-02-23T07:42:57;101585.63;;;6.70;100.00
59170;BME280;52474;52.236;5.114;2023-02-23T07:45:24;101582.81;;;6.73;100.00
59170;BME280;52474;52.236;5.114;2023-02-23T07:47:50;101578.97;;;6.78;100.00
59170;BME280;52474;52.236;5.114;2023-02-23T07:50:15;101591.41;;;6.91;100.00
59170;BME280;52474;52.236;5.114;2023-02-23T07:52:42;101586.97;;;6.91;100.00
59170;BME280;52474;52.236;5.114;2023-02-23T07:55:09;101583.25;;;6.95;100.00
59170;BME280;52474;52.236;5.114;2023-02-23T07:57:35;101593.34;;;7.03;100.00
59170;BME280;52474;52.236;5.114;2023-02-23T08:00:01;101601.81;;;7.08;100.00
59170;BME280;52474;52.236;5.114;2023-02-23T08:02:27;101600.97;;;7.07;100.00
59170;BME280;52474;52.236;5.114;2023-02-23T08:04:57;101605.28;;;7.08;100.00
59170;BME280;52474;52.236;5.114;2023-02-23T08:07:23;101604.56;;;7.06;100.00
59170;BME280;52474;52.236;5.114;2023-02-23T08:09:51;101613.56;;;7.02;100.00
59170;BME280;52474;52.236;5.114;2023-02-23T08:12:17;101609.97;;;7.03;100.00
59170;BME280;52474;52.236;5.114;2023-02-23T08:14:42;101619.22;;;7.10;100.00
59170;BME280;52474;52.236;5.114;2023-02-23T08:17:09;101596.66;;;7.06;100.00
59170;BME280;52474;52.236;5.114;2023-02-23T08:19:35;101596.78;;;7.19;100.00
59170;BME280;52474;52.236;5.114;2023-02-23T08:22:02;101614.66;;;7.28;100.00
59170;BME280;52474;52.236;5.114;2023-02-23T08:24:28;101605.31;;;7.23;100.00
59170;BME280;52474;52.236;5.114;2023-02-23T08:27:00;101623.16;;;7.34;100.00
59170;BME280;52474;52.236;5.114;2023-02-23T08:29:26;101630.03;;;7.36;100.00
59170;BME280;52474;52.236;5.114;2023-02-23T08:31:51;101627.97;;;7.41;100.00
59170;BME280;52474;52.236;5.114;2023-02-23T08:34:18;101623.53;;;7.42;100.00
59170;BME280;52474;52.236;5.114;2023-02-23T08:36:45;101627.50;;;7.49;100.00
59170;BME280;52474;52.236;5.114;2023-02-23T08:39:11;101627.00;;;7.42;100.00
59170;BME280;52474;52.236;5.114;2023-02-23T08:41:38;101624.19;;;7.31;100.00
59170;BME280;52474;52.236;5.114;2023-02-23T08:44:04;101628.03;;;7.40;100.00
59170;BME280;52474;52.236;5.114;2023-02-23T08:46:30;101637.00;;;7.51;100.00
59170;BME280;52474;52.236;5.114;2023-02-23T08:48:56;101639.72;;;7.50;100.00
59170;BME280;52474;52.236;5.114;2023-02-23T08:51:22;101643.97;;;7.52;100.00
59170;BME280;52474;52.236;5.114;2023-02-23T08:53:48;101634.38;;;7.51;100.00
59170;BME280;52474;52.236;5.114;2023-02-23T08:56:14;101640.97;;;7.59;100.00
59170;BME280;52474;52.236;5.114;2023-02-23T08:58:41;101646.91;;;7.62;100.00
59170;BME280;52474;52.236;5.114;2023-02-23T09:01:07;101631.19;;;7.61;100.00
59170;BME280;52474;52.236;5.114;2023-02-23T09:03:32;101646.56;;;7.68;100.00
59170;BME280;52474;52.236;5.114;2023-02-23T09:06:10;101629.94;;;7.52;100.00
59170;BME280;52474;52.236;5.114;2023-02-23T09:08:36;101653.91;;;7.63;100.00
59170;BME280;52474;52.236;5.114;2023-02-23T09:11:04;101652.09;;;7.64;100.00
59170;BME280;52474;52.236;5.114;2023-02-23T09:13:30;101637.78;;;7.53;100.00
59170;BME280;52474;52.236;5.114;2023-02-23T09:15:56;101655.69;;;7.77;100.00
59170;BME280;52474;52.236;5.114;2023-02-23T09:18:22;101658.03;;;7.82;100.00
59170;BME280;52474;52.236;5.114;2023-02-23T09:20:49;101643.63;;;7.73;100.00
59170;BME280;52474;52.236;5.114;2023-02-23T09:23:15;101667.66;;;7.83;100.00
59170;BME280;52474;52.236;5.114;2023-02-23T09:25:41;101662.28;;;7.84;100.00
59170;BME280;52474;52.236;5.114;2023-02-23T09:28:10;101669.63;;;7.93;100.00
59170;BME280;52474;52.236;5.114;2023-02-23T09:30:36;101660.00;;;7.92;100.00
59170;BME280;52474;52.236;5.114;2023-02-23T09:33:02;101666.81;;;7.96;100.00
59170;BME280;52474;52.236;5.114;2023-02-23T09:35:28;101668.97;;;7.90;100.00
59170;BME280;52474;52.236;5.114;2023-02-23T09:37:54;101680.19;;;7.93;100.00
59170;BME280;52474;52.236;5.114;2023-02-23T09:40:28;101670.75;;;7.89;100.00
59170;BME280;52474;52.236;5.114;2023-02-23T09:45:41;101657.75;;;7.72;100.00
59170;BME280;52474;52.236;5.114;2023-02-23T09:48:24;101673.66;;;7.85;100.00
59170;BME280;52474;52.236;5.114;2023-02-23T09:50:56;101670.88;;;7.88;100.00
59170;BME280;52474;52.236;5.114;2023-02-23T09:53:28;101672.28;;;7.93;100.00
59170;BME280;52474;52.236;5.114;2023-02-23T09:55:56;101675.47;;;7.99;100.00
59170;BME280;52474;52.236;5.114;2023-02-23T09:58:25;101667.38;;;8.02;100.00
59170;BME280;52474;52.236;5.114;2023-02-23T10:03:38;101679.59;;;8.31;100.00
59170;BME280;52474;52.236;5.114;2023-02-23T10:06:08;101663.00;;;8.29;100.00
59170;BME280;52474;52.236;5.114;2023-02-23T10:08:42;101665.19;;;8.37;100.00
59170;BME280;52474;52.236;5.114;2023-02-23T10:11:23;101665.38;;;8.34;100.00
59170;BME280;52474;52.236;5.114;2023-02-23T10:16:48;101686.19;;;8.38;100.00
59170;BME280;52474;52.236;5.114;2023-02-23T10:19:31;101689.69;;;8.39;100.00
59170;BME280;52474;52.236;5.114;2023-02-23T10:22:03;101663.97;;;8.28;100.00
59170;BME280;52474;52.236;5.114;2023-02-23T10:24:43;101683.97;;;8.47;100.00
59170;BME280;52474;52.236;5.114;2023-02-23T10:27:21;101680.91;;;8.38;100.00
59170;BME280;52474;52.236;5.114;2023-02-23T10:29:51;101694.81;;;8.42;100.00
59170;BME280;52474;52.236;5.114;2023-02-23T10:35:18;101696.88;;;8.37;100.00
59170;BME280;52474;52.236;5.114;2023-02-23T10:37:46;101699.22;;;8.42;100.00
59170;BME280;52474;52.236;5.114;2023-02-23T10:40:23;101701.75;;;8.29;100.00
59170;BME280;52474;52.236;5.114;2023-02-23T10:42:55;101706.38;;;8.25;100.00
59170;BME280;52474;52.236;5.114;2023-02-23T10:45:25;101705.13;;;8.02;100.00
59170;BME280;52474;52.236;5.114;2023-02-23T10:47:59;101705.53;;;7.96;100.00
59170;BME280;52474;52.236;5.114;2023-02-23T10:50:27;101700.81;;;7.87;100.00
59170;BME280;52474;52.236;5.114;2023-02-23T10:55:46;101708.25;;;7.80;100.00
59170;BME280;52474;52.236;5.114;2023-02-23T10:58:17;101717.78;;;7.83;100.00
59170;BME280;52474;52.236;5.114;2023-02-23T11:00:58;101687.59;;;7.72;100.00
59170;BME280;52474;52.236;5.114;2023-02-23T11:03:44;101690.91;;;7.76;100.00
59170;BME280;52474;52.236;5.114;2023-02-23T11:06:35;101709.69;;;8.00;100.00
59170;BME280;52474;52.236;5.114;2023-02-23T11:11:58;101715.53;;;8.05;100.00
59170;BME280;52474;52.236;5.114;2023-02-23T11:14:26;101714.09;;;8.14;100.00
59170;BME280;52474;52.236;5.114;2023-02-23T11:16:56;101719.66;;;8.24;100.00
59170;BME280;52474;52.236;5.114;2023-02-23T11:19:28;101703.34;;;8.17;100.00
59170;BME280;52474;52.236;5.114;2023-02-23T11:21:54;101723.16;;;8.24;100.00
59170;BME280;52474;52.236;5.114;2023-02-23T11:24:31;101713.81;;;8.33;100.00
59170;BME280;52474;52.236;5.114;2023-02-23T11:27:00;101726.09;;;8.48;100.00
59170;BME280;52474;52.236;5.114;2023-02-23T11:29:38;101727.50;;;8.54;100.00
59170;BME280;52474;52.236;5.114;2023-02-23T11:32:12;101724.69;;;8.57;100.00
59170;BME280;52474;52.236;5.114;2023-02-23T11:34:40;101722.59;;;8.76;100.00
59170;BME280;52474;52.236;5.114;2023-02-23T11:42:18;101690.22;;;8.73;100.00
59170;BME280;52474;52.236;5.114;2023-02-23T11:45:01;101691.06;;;8.73;100.00
59170;BME280;52474;52.236;5.114;2023-02-23T11:47:28;101719.63;;;8.81;100.00
59170;BME280;52474;52.236;5.114;2023-02-23T11:49:55;101696.84;;;8.66;100.00
59170;BME280;52474;52.236;5.114;2023-02-23T11:52:23;101709.94;;;8.67;100.00
59170;BME280;52474;52.236;5.114;2023-02-23T11:55:04;101709.88;;;8.54;100.00
59170;BME280;52474;52.236;5.114;2023-02-23T11:57:34;101715.34;;;8.51;100.00
59170;BME280;52474;52.236;5.114;2023-02-23T12:00:08;101708.09;;;8.41;100.00
59170;BME280;52474;52.236;5.114;2023-02-23T12:02:53;101713.53;;;8.37;100.00
59170;BME280;52474;52.236;5.114;2023-02-23T12:05:23;101717.97;;;8.37;100.00
59170;BME280;52474;52.236;5.114;2023-02-23T12:08:13;101711.94;;;8.35;100.00
59170;BME280;52474;52.236;5.114;2023-02-23T12:10:48;101715.81;;;8.44;100.00
59170;BME280;52474;52.236;5.114;2023-02-23T12:16:19;101713.91;;;8.74;100.00
59170;BME280;52474;52.236;5.114;2023-02-23T12:32:05;101703.34;;;9.01;100.00
59170;BME280;52474;52.236;5.114;2023-02-23T12:34:43;101683.69;;;8.78;100.00
59170;BME280;52474;52.236;5.114;2023-02-23T12:42:59;101711.50;;;8.98;100.00
59170;BME280;52474;52.236;5.114;2023-02-23T12:51:20;101696.53;;;8.70;100.00
59170;BME280;52474;52.236;5.114;2023-02-23T12:53:47;101704.03;;;8.91;100.00
59170;BME280;52474;52.236;5.114;2023-02-23T12:59:24;101694.88;;;8.69;100.00
59170;BME280;52474;52.236;5.114;2023-02-23T13:01:56;101703.91;;;8.65;100.00
59170;BME280;52474;52.236;5.114;2023-02-23T13:20:50;101694.13;;;8.94;100.00
59170;BME280;52474;52.236;5.114;2023-02-23T13:31:16;101701.88;;;8.27;100.00
59170;BME280;52474;52.236;5.114;2023-02-23T13:33:44;101705.06;;;8.18;100.00
59170;BME280;52474;52.236;5.114;2023-02-23T13:36:10;101691.03;;;8.17;100.00
59170;BME280;52474;52.236;5.114;2023-02-23T13:38:45;101707.53;;;8.50;100.00
59170;BME280;52474;52.236;5.114;2023-02-23T13:41:38;101711.50;;;8.57;100.00
59170;BME280;52474;52.236;5.114;2023-02-23T13:44:21;101696.00;;;8.51;100.00
59170;BME280;52474;52.236;5.114;2023-02-23T13:49:50;101715.22;;;8.24;100.00
59170;BME280;52474;52.236;5.114;2023-02-23T13:52:36;101722.59;;;8.19;100.00
59170;BME280;52474;52.236;5.114;2023-02-23T13:57:54;101716.19;;;8.23;100.00
59170;BME280;52474;52.236;5.114;2023-02-23T14:00:22;101706.75;;;8.33;100.00
59170;BME280;52474;52.236;5.114;2023-02-23T14:02:49;101725.25;;;8.62;100.00
59170;BME280;52474;52.236;5.114;2023-02-23T14:05:23;101728.59;;;8.78;100.00
59170;BME280;52474;52.236;5.114;2023-02-23T14:07:55;101721.47;;;8.93;100.00
59170;BME280;52474;52.236;5.114;2023-02-23T14:10:26;101714.47;;;9.07;100.00
59170;BME280;52474;52.236;5.114;2023-02-23T14:13:07;101721.53;;;9.33;100.00
59170;BME280;52474;52.236;5.114;2023-02-23T14:18:33;101699.97;;;8.99;100.00
59170;BME280;52474;52.236;5.114;2023-02-23T14:21:04;101722.94;;;9.12;100.00
59170;BME280;52474;52.236;5.114;2023-02-23T14:26:17;101712.97;;;9.02;100.00
59170;BME280;52474;52.236;5.114;2023-02-23T14:32:18;101727.06;;;8.47;100.00
59170;BME280;52474;52.236;5.114;2023-02-23T14:37:39;101741.13;;;7.89;100.00
59170;BME280;52474;52.236;5.114;2023-02-23T14:40:16;101746.56;;;7.71;100.00
59170;BME280;52474;52.236;5.114;2023-02-23T14:42:48;101724.72;;;7.39;100.00
59170;BME280;52474;52.236;5.114;2023-02-23T14:45:18;101742.44;;;7.51;100.00
59170;BME280;52474;52.236;5.114;2023-02-23T14:47:54;101736.53;;;7.32;100.00
59170;BME280;52474;52.236;5.114;2023-02-23T14:50:47;101745.44;;;7.45;100.00
59170;BME280;52474;52.236;5.114;2023-02-23T14:53:20;101737.38;;;7.32;100.00
59170;BME280;52474;52.236;5.114;2023-02-23T14:55:47;101736.28;;;7.21;100.00
59170;BME280;52474;52.236;5.114;2023-02-23T14:58:31;101752.78;;;7.24;100.00
59170;BME280;52474;52.236;5.114;2023-02-23T15:00:58;101747.69;;;7.21;100.00
59170;BME280;52474;52.236;5.114;2023-02-23T15:03:23;101755.16;;;7.13;100.00
59170;BME280;52474;52.236;5.114;2023-02-23T15:05:59;101754.84;;;7.03;100.00
59170;BME280;52474;52.236;5.114;2023-02-23T15:08:28;101758.94;;;7.09;100.00
59170;BME280;52474;52.236;5.114;2023-02-23T15:11:11;101750.44;;;7.04;100.00
59170;BME280;52474;52.236;5.114;2023-02-23T15:13:42;101742.94;;;6.80;100.00
59170;BME280;52474;52.236;5.114;2023-02-23T15:16:14;101757.66;;;6.84;100.00
59170;BME280;52474;52.236;5.114;2023-02-23T15:18:43;101770.72;;;6.86;100.00
59170;BME280;52474;52.236;5.114;2023-02-23T15:21:16;101759.72;;;6.62;100.00